Date,TemperatureHighF,TemperatureAvgF,TemperatureLowF,DewpointHighF,DewpointAvgF,DewpointLowF,HumidityHigh,HumidityAvg,HumidityLow,PressureMaxIn,PressureMinIn,WindSpeedMaxMPH,WindSpeedAvgMPH,GustSpeedMaxMPH,PrecipitationSumIn
2013-1-1,71,64,56,-100,-100,-100,0,0,100,30.22,30.04,13,-8,16,0.00
2013-1-2,71,66,63,-100,-100,-100,0,0,100,30.07,30.00,14,-29,16,0.00
2013-1-3,70,64,59,-100,-100,-100,0,0,100,30.17,30.04,20,-15,24,0.00
2013-1-4,61,58,56,-100,-100,-100,0,0,100,30.28,30.15,15,8,19,0.00
2013-1-5,72,63,56,-100,-100,-100,0,0,100,30.30,30.18,12,6,15,0.00
2013-1-6,75,65,62,-100,-100,-100,0,0,100,30.21,30.08,16,5,18,0.00
2013-1-7,66,63,60,-100,-100,-100,0,0,100,30.22,30.11,12,7,18,0.00
2013-1-8,82,71,62,-100,-100,-100,0,0,100,30.22,30.12,10,5,13,0.00
2013-1-9,83,74,69,-100,-100,-100,0,0,100,30.29,30.17,11,6,16,0.00
2013-1-10,82,74,68,-100,-100,-100,0,0,100,30.29,30.20,15,7,21,0.00
2013-1-11,82,72,66,-100,-100,-100,0,0,100,30.27,30.13,12,-2,17,0.00
2013-1-12,81,72,66,-100,-100,-100,0,0,100,30.19,30.08,14,-2,18,0.00
2013-1-13,76,70,65,-100,-100,-100,0,0,100,30.17,30.06,8,-10,11,0.00
2013-1-14,75,70,64,-100,-100,-100,0,0,100,30.19,30.12,10,-10,16,0.00
2013-1-15,75,70,64,-100,-100,-100,0,0,100,30.15,30.06,11,5,13,0.00
2013-1-16,75,70,66,-100,-100,-100,0,0,100,30.11,30.01,13,5,13,0.00
2013-1-17,70,64,56,-100,-100,-100,0,0,100,30.15,30.00,30,16,36,0.00
2013-1-18,63,54,43,-100,-100,-100,0,0,100,30.32,30.14,30,13,34,0.00
2013-1-19,74,64,55,-100,-100,-100,0,0,100,30.28,30.13,16,8,20,0.00
2013-1-20,74,66,60,-100,-100,-100,0,0,100,30.19,30.05,13,6,14,0.00
2013-1-21,69,65,62,-100,-100,-100,0,0,100,30.11,30.03,19,2,24,0.00
2013-1-22,65,61,56,-100,-100,-100,0,0,100,30.29,30.08,17,10,21,0.00
2013-1-23,65,58,49,-100,-100,-100,0,0,100,30.37,30.28,15,7,17,0.00
2013-1-24,66,59,52,-100,-100,-100,0,0,100,30.35,30.26,17,0,19,0.00
2013-1-25,73,63,54,-100,-100,-100,0,0,100,30.32,30.19,9,-2,10,0.00
2013-1-26,68,63,55,-100,-100,-100,0,0,100,30.29,30.18,16,7,18,0.00
2013-1-27,78,67,57,-100,-100,-100,0,0,100,30.31,30.22,9,5,14,0.00
2013-1-28,80,70,63,-100,-100,-100,0,0,100,30.32,30.21,12,6,19,0.00
2013-1-29,77,69,64,-100,-100,-100,0,0,100,30.25,30.09,14,7,18,0.00
2013-1-30,75,71,67,-100,-100,-100,0,0,100,30.11,29.92,24,14,28,0.00
2013-1-31,71,58,55,-100,-100,-100,0,0,100,30.24,29.93,23,17,26,0.00
2013-2-1,64,57,48,-100,-100,-100,0,0,100,30.37,30.23,21,12,25,0.00
2013-2-2,68,58,49,-100,-100,-100,0,0,100,30.32,30.16,15,8,18,0.00
2013-2-3,65,58,49,-100,-100,-100,0,0,100,30.21,30.11,15,7,17,0.00
2013-2-4,65,60,52,-100,-100,-100,0,0,100,30.15,30.05,12,6,13,0.00
2013-2-5,69,61,51,-100,-100,-100,0,0,100,30.10,30.01,11,-16,13,0.00
2013-2-6,76,67,61,-100,-100,-100,0,0,100,30.11,30.03,9,-10,12,0.00
2013-2-7,73,68,63,-100,-100,-100,0,0,100,30.06,29.88,27,11,34,0.00
2013-2-8,69,66,62,-100,-100,-100,0,0,100,30.09,29.91,20,13,23,0.00
2013-2-9,76,65,56,-100,-100,-100,0,0,100,30.20,30.08,12,6,15,0.00
2013-2-10,79,69,62,-100,-100,-100,0,0,100,30.25,30.14,16,8,22,0.00
2013-2-11,73,68,64,-100,-100,-100,0,0,100,30.21,30.09,18,9,21,0.00
2013-2-12,73,69,65,-100,-100,-100,0,0,100,30.11,29.96,19,9,22,0.00
2013-2-13,73,70,63,-100,-100,-100,0,0,100,30.01,29.87,31,14,38,0.00
2013-2-14,65,62,60,-100,-100,-100,0,0,100,30.05,29.93,20,6,23,0.00
2013-2-15,67,60,55,-100,-100,-100,0,0,100,30.09,29.97,15,8,17,0.00
2013-2-16,64,59,56,-100,-100,-100,0,0,100,30.12,29.95,34,18,42,0.00
2013-2-17,56,47,42,-100,-100,-100,0,0,100,30.35,30.12,31,14,36,0.00
2013-2-18,68,54,41,-100,-100,-100,0,0,100,30.37,30.20,15,6,19,0.00
2013-2-19,68,62,54,-100,-100,-100,0,0,100,30.22,30.09,12,7,15,0.00
2013-2-20,71,65,63,-100,-100,-100,0,0,100,30.13,30.02,14,6,17,0.00
2013-2-21,75,68,61,-100,-100,-100,0,0,100,30.11,30.00,11,5,13,0.00
2013-2-22,73,69,63,-100,-100,-100,0,0,100,30.08,30.00,15,7,18,0.00
2013-2-23,73,70,68,-100,-100,-100,0,0,100,30.02,29.91,20,10,24,0.00
2013-2-24,76,70,67,-100,-100,-100,0,0,100,29.97,29.88,14,-7,16,0.00
2013-2-25,75,71,67,-100,-100,-100,0,0,100,29.92,29.78,17,7,19,0.00
2013-2-26,74,71,67,-100,-100,-100,0,0,100,29.90,29.71,23,11,28,0.00
2013-2-27,68,65,61,-100,-100,-100,0,0,100,29.99,29.88,17,11,20,0.00
2013-2-28,68,64,61,-100,-100,-100,0,0,100,30.01,29.93,20,13,26,0.00
2013-3-1,62,58,53,-100,-100,-100,0,0,100,30.03,29.92,22,14,28,0.00
2013-3-2,57,54,49,-100,-100,-100,0,0,100,30.09,29.99,25,16,29,0.00
2013-3-3,55,48,43,-100,-100,-100,0,0,100,30.17,30.00,26,16,30,0.00
2013-3-4,64,52,44,-100,-100,-100,0,0,100,30.24,30.14,16,8,21,0.00
2013-3-5,67,59,48,-100,-100,-100,0,0,100,30.18,30.05,15,8,18,0.00
2013-3-6,66,58,53,-100,-100,-100,0,0,100,30.14,29.98,32,20,36,0.00
2013-3-7,58,53,46,-100,-100,-100,0,0,100,30.24,30.13,20,13,27,0.00
2013-3-8,66,57,48,-100,-100,-100,0,0,100,30.24,30.13,16,8,17,0.00
2013-3-9,73,62,53,-100,-100,-100,0,0,100,30.23,30.14,12,6,16,0.00
2013-3-10,77,66,59,-100,-100,-100,0,0,100,30.18,30.05,17,7,21,0.00
2013-3-11,71,66,59,-100,-100,-100,0,0,100,30.11,29.90,17,9,22,0.00
2013-3-12,67,64,60,-100,-100,-100,0,0,100,30.06,29.86,21,13,26,0.00
2013-3-13,66,61,57,-100,-100,-100,0,0,100,30.19,30.05,23,17,28,0.00
2013-3-14,62,57,52,-100,-100,-100,0,0,100,30.28,30.17,25,17,32,0.00
2013-3-15,65,57,47,-100,-100,-100,0,0,100,30.30,30.17,18,7,20,0.00
2013-3-16,70,61,51,-100,-100,-100,0,0,100,30.20,30.09,12,6,15,0.00
2013-3-17,71,64,56,-100,-100,-100,0,0,100,30.14,30.01,14,6,16,0.00
2013-3-18,71,67,62,-100,-100,-100,0,0,100,30.04,29.90,19,6,25,0.00
2013-3-19,79,68,64,-100,-100,-100,0,0,100,30.03,29.91,12,6,15,0.00
2013-3-20,70,67,61,-100,-100,-100,0,0,100,29.98,29.82,25,0,31,0.00
2013-3-21,63,60,55,-100,-100,-100,0,0,100,30.01,29.88,20,12,26,0.00
2013-3-22,71,62,51,-100,-100,-100,0,0,100,30.01,29.90,11,5,14,0.00
2013-3-23,72,68,65,-100,-100,-100,0,0,100,29.97,29.81,19,9,21,0.00
2013-3-24,75,71,69,-100,-100,-100,0,0,100,29.84,29.67,21,13,28,0.00
2013-3-25,70,62,58,-100,-100,-100,0,0,100,30.07,29.76,27,19,30,0.00
2013-3-26,61,54,49,-100,-100,-100,0,0,100,30.26,30.05,28,20,40,0.00
2013-3-27,54,50,45,-100,-100,-100,0,0,100,30.34,30.22,19,13,24,0.00
2013-3-28,64,56,46,-100,-100,-100,0,0,100,30.31,30.21,15,9,18,0.00
2013-3-29,70,61,51,-100,-100,-100,0,0,100,30.33,30.20,16,6,18,0.00
2013-3-30,71,63,54,-100,-100,-100,0,0,100,30.26,30.15,16,6,19,0.00
2013-3-31,71,65,59,-100,-100,-100,0,0,100,30.18,30.02,15,8,18,0.00
2013-4-1,75,69,65,-100,-100,-100,0,0,100,30.05,29.97,18,9,21,0.00
2013-4-2,75,69,66,-100,-100,-100,0,0,100,30.11,30.01,13,6,15,0.00
2013-4-3,78,71,65,-100,-100,-100,0,0,100,30.09,29.95,15,0,23,0.00
2013-4-4,72,70,67,-100,-100,-100,0,0,100,30.07,29.86,23,11,31,0.00
2013-4-5,70,67,63,-100,-100,-100,0,0,100,29.99,29.82,22,14,27,0.00
2013-4-6,71,64,57,-100,-100,-100,0,0,100,30.11,29.98,19,10,22,0.00
2013-4-7,77,70,62,-100,-100,-100,0,0,100,30.15,30.05,15,7,17,0.00
2013-4-8,83,73,65,-100,-100,-100,0,0,100,30.14,30.04,15,0,19,0.00
2013-4-9,83,74,65,-100,-100,-100,0,0,100,30.16,30.06,13,6,18,0.00
2013-4-10,82,74,66,-100,-100,-100,0,0,100,30.12,29.97,13,-1,16,0.00
2013-4-11,82,76,72,-100,-100,-100,0,0,100,29.99,29.82,20,10,23,0.00
2013-4-12,77,75,73,-100,-100,-100,0,0,100,29.93,29.79,27,12,33,0.00
2013-4-13,80,75,71,-100,-100,-100,0,0,100,29.99,29.88,15,-8,16,0.00
2013-4-14,80,74,69,-100,-100,-100,0,0,100,30.00,29.86,33,11,41,0.00
2013-4-15,83,75,69,-100,-100,-100,0,0,100,30.08,29.94,19,7,21,0.00
2013-4-16,90,80,71,-100,-100,-100,0,0,100,30.14,30.03,14,-8,20,0.00
2013-4-17,86,77,69,-100,-100,-100,0,0,100,30.14,30.02,13,7,20,0.00
2013-4-18,85,76,69,-100,-100,-100,0,0,100,30.05,29.95,16,8,18,0.00
2013-4-19,82,77,72,-100,-100,-100,0,0,100,30.01,29.94,23,14,26,0.00
2013-4-20,78,70,62,-100,-100,-100,0,0,100,30.15,29.97,23,12,28,0.00
2013-4-21,80,69,60,-100,-100,-100,0,0,100,30.15,30.02,19,8,22,0.00
2013-4-22,79,72,67,-100,-100,-100,0,0,100,30.09,29.98,14,8,20,0.00
2013-4-23,83,73,66,-100,-100,-100,0,0,100,30.11,30.02,13,7,19,0.00
2013-4-24,80,72,64,-100,-100,-100,0,0,100,30.14,30.07,17,8,19,0.00
2013-4-25,79,74,67,-100,-100,-100,0,0,100,30.22,30.11,18,8,21,0.00
2013-4-26,83,75,69,-100,-100,-100,0,0,100,30.25,30.15,15,6,17,0.00
2013-4-27,84,77,70,-100,-100,-100,0,0,100,30.23,30.08,15,6,19,0.00
2013-4-28,84,76,68,-100,-100,-100,0,0,100,30.13,29.97,13,8,19,0.00
2013-4-29,80,76,71,-100,-100,-100,0,0,100,30.03,29.91,16,8,18,0.00
2013-4-30,84,75,67,-100,-100,-100,0,0,100,30.01,29.91,17,7,30,0.00
2013-5-1,75,71,67,-100,-100,-100,0,0,100,30.01,29.92,18,6,21,0.00
2013-5-2,76,71,66,-100,-100,-100,0,0,100,29.98,29.82,11,-2,16,0.00
2013-5-3,78,73,69,-100,-100,-100,0,0,100,29.84,29.72,19,9,22,0.00
2013-5-4,76,73,69,-100,-100,-100,0,0,100,29.82,29.69,20,11,23,0.00
2013-5-5,72,69,66,-100,-100,-100,0,0,100,29.95,29.80,25,16,29,0.00
2013-5-6,71,69,66,-100,-100,-100,0,0,100,30.02,29.91,17,12,20,0.00
2013-5-7,73,70,66,-100,-100,-100,0,0,100,30.06,29.98,15,10,22,0.00
2013-5-8,76,72,70,-100,-100,-100,0,0,100,30.14,30.04,14,0,17,0.00
2013-5-9,82,74,69,-100,-100,-100,0,0,100,30.16,30.09,15,8,17,0.00
2013-5-10,83,75,69,-100,-100,-100,0,0,100,30.15,30.01,12,6,15,0.00
2013-5-11,82,77,73,-100,-100,-100,0,0,100,30.07,30.00,20,1,24,0.00
2013-5-12,82,76,72,-100,-100,-100,0,0,100,30.06,29.94,18,7,20,0.00
2013-5-13,78,75,72,-100,-100,-100,0,0,100,30.14,30.02,23,12,26,0.00
2013-5-14,78,72,63,-100,-100,-100,0,0,100,30.22,30.12,18,10,21,0.00
2013-5-15,84,74,65,-100,-100,-100,0,0,100,30.22,30.08,16,6,17,0.00
2013-5-16,85,70,69,-100,-100,-100,0,0,100,30.14,30.00,15,7,18,0.00
2013-5-17,82,76,70,-100,-100,-100,0,0,100,30.11,30.03,14,8,16,0.00
2013-5-18,84,77,71,-100,-100,-100,0,0,100,30.12,30.02,15,8,18,0.00
2013-5-19,83,79,75,-100,-100,-100,0,0,100,30.10,29.99,16,7,17,0.00
2013-5-20,85,78,73,-100,-100,-100,0,0,100,30.08,29.97,20,6,28,0.00
2013-5-21,83,74,70,-100,-100,-100,0,0,100,30.04,29.93,16,5,30,0.00
2013-5-22,82,76,71,-100,-100,-100,0,0,100,29.98,29.90,16,5,18,0.00
2013-5-23,83,78,73,-100,-100,-100,0,0,100,30.02,29.92,17,-6,19,0.00
2013-5-24,86,81,77,-100,-100,-100,0,0,100,30.08,29.98,19,12,22,0.00
2013-5-25,88,81,74,-100,-100,-100,0,0,100,30.18,30.06,17,8,25,0.00
2013-5-26,84,77,68,-100,-100,-100,0,0,100,30.22,30.11,13,6,21,0.00
2013-5-27,87,78,69,-100,-100,-100,0,0,100,30.18,30.05,15,7,21,0.00
2013-5-28,88,77,72,-100,-100,-100,0,0,100,30.15,30.02,17,9,26,0.00
2013-5-29,85,77,73,-100,-100,-100,0,0,100,30.09,30.03,23,9,37,0.00
2013-5-30,87,79,75,-100,-100,-100,0,0,100,30.08,30.00,21,11,28,0.00
2013-5-31,86,79,74,-100,-100,-100,0,0,100,30.08,30.00,14,9,20,0.00
2013-6-1,87,78,75,-100,-100,-100,0,0,100,30.06,29.95,15,7,18,0.00
2013-6-2,84,78,74,-100,-100,-100,0,0,100,30.00,29.90,15,0,17,0.00
2013-6-3,82,79,76,-100,-100,-100,0,0,100,30.01,29.91,19,10,23,0.00
2013-6-4,81,78,74,-100,-100,-100,0,0,100,30.02,29.94,23,7,28,0.00
2013-6-5,83,78,75,-100,-100,-100,0,0,100,30.02,29.89,13,7,19,0.00
2013-6-6,80,77,74,-100,-100,-100,0,0,100,29.90,29.66,35,18,46,0.00
2013-6-7,83,79,76,-100,-100,-100,0,0,100,29.97,29.79,14,10,16,0.00
2013-6-8,84,78,73,-100,-100,-100,0,0,100,30.10,29.96,17,9,19,0.00
2013-6-9,85,78,73,-100,-100,-100,0,0,100,30.10,30.01,24,-2,30,0.00
2013-6-10,87,80,76,-100,-100,-100,0,0,100,30.09,30.01,18,6,20,0.00
2013-6-11,86,80,77,-100,-100,-100,0,0,100,30.09,30.02,16,5,17,0.00
2013-6-12,87,82,76,-100,-100,-100,0,0,100,30.10,30.01,15,6,17,0.00
2013-6-13,87,82,78,-100,-100,-100,0,0,100,30.05,29.92,15,8,16,0.00
2013-6-14,86,82,80,-100,-100,-100,0,0,100,29.96,29.88,15,10,19,0.00
2013-6-15,87,82,79,-100,-100,-100,0,0,100,30.06,29.92,14,7,16,0.00
2013-6-16,87,82,78,-100,-100,-100,0,0,100,30.09,30.01,16,7,18,0.00
2013-6-17,89,83,78,-100,-100,-100,0,0,100,30.08,29.99,12,6,15,0.00
2013-6-18,88,84,79,-100,-100,-100,0,0,100,30.06,29.98,13,7,14,0.00
2013-6-19,88,83,75,-100,-100,-100,0,0,100,30.04,29.98,14,-2,21,0.00
2013-6-20,86,82,78,-100,-100,-100,0,0,100,30.11,30.01,12,6,13,0.00
2013-6-22,88,83,76,-100,-100,-100,0,0,100,30.13,30.04,18,8,28,0.00
2013-6-23,90,80,76,-100,-100,-100,0,0,100,30.14,30.06,17,5,22,0.00
2013-6-24,91,82,76,-100,-100,-100,0,0,100,30.19,30.06,13,5,15,0.00
2013-6-25,91,84,77,-100,-100,-100,0,0,100,30.15,30.02,19,6,28,0.00
2013-6-26,87,80,76,-100,-100,-100,0,0,100,30.08,30.01,21,5,26,0.00
2013-6-27,89,81,74,-100,-100,-100,0,0,100,30.06,29.95,20,7,22,0.00
2013-6-28,86,83,79,-100,-100,-100,0,0,100,29.98,29.86,17,9,20,0.00
2013-6-29,83,81,77,-100,-100,-100,0,0,100,29.89,29.81,23,11,28,0.00
2013-6-30,84,81,75,-100,-100,-100,0,0,100,29.89,29.81,21,12,27,0.00
2013-7-1,80,77,74,-100,-100,-100,0,0,100,29.99,29.83,26,15,30,0.00
2013-7-2,85,77,73,-100,-100,-100,0,0,100,30.08,29.96,23,9,28,0.00
2013-7-3,86,77,75,-100,-100,-100,0,0,100,30.11,30.05,18,7,21,0.00
2013-7-4,86,78,74,-100,-100,-100,0,0,100,30.15,30.06,23,8,29,0.00
2013-7-5,88,78,74,-100,-100,-100,0,0,100,30.14,30.06,22,-5,32,0.00
2013-7-6,90,81,75,-100,-100,-100,0,0,100,30.12,30.02,13,7,25,0.00
2013-7-7,90,82,76,-100,-100,-100,0,0,100,30.13,30.02,13,6,20,0.00
2013-7-8,91,82,78,-100,-100,-100,0,0,100,30.15,30.07,13,6,16,0.00
2013-7-9,89,83,76,-100,-100,-100,0,0,100,30.17,30.06,9,-21,16,0.00
2013-7-10,86,78,73,-100,-100,-100,0,0,100,30.10,29.96,18,5,25,0.00
2013-7-11,84,79,76,-100,-100,-100,0,0,100,30.03,29.93,18,7,24,0.00
2013-7-12,84,80,76,-100,-100,-100,0,0,100,29.96,29.90,12,-10,19,0.00
2013-7-13,83,78,74,-100,-100,-100,0,0,100,29.99,29.91,17,6,21,0.00
2013-7-14,83,78,74,-100,-100,-100,0,0,100,30.08,29.96,11,6,15,0.00
2013-7-15,87,78,74,-100,-100,-100,0,0,100,30.11,30.01,9,6,17,0.00
2013-7-16,87,78,75,-100,-100,-100,0,0,100,30.15,30.08,16,7,24,0.00
2013-7-17,88,77,73,-100,-100,-100,0,0,100,30.16,30.07,20,5,23,0.00
2013-7-18,85,77,74,-100,-100,-100,0,0,100,30.12,30.05,17,6,24,0.00
2013-7-19,84,77,73,-100,-100,-100,0,0,100,30.13,30.06,16,6,19,0.00
2013-7-20,85,78,74,-100,-100,-100,0,0,100,30.11,30.03,19,5,28,0.00
2013-7-21,86,81,75,-100,-100,-100,0,0,100,30.13,30.05,16,7,18,0.00
2013-7-22,86,83,80,-100,-100,-100,0,0,100,30.14,30.07,15,8,18,0.00
2013-7-23,85,82,78,-100,-100,-100,0,0,100,30.10,29.98,14,7,17,0.00
2013-7-24,85,83,82,-100,-100,-100,0,0,100,30.02,29.92,19,12,21,0.00
2013-7-25,85,83,82,-100,-100,-100,0,0,100,30.01,29.89,18,13,23,0.00
2013-7-26,86,82,76,-100,-100,-100,0,0,100,30.02,29.96,19,-5,28,0.00
2013-7-27,87,84,82,-100,-100,-100,0,0,100,30.01,29.92,14,9,16,0.00
2013-7-28,85,82,77,-100,-100,-100,0,0,100,30.06,29.94,14,-12,23,0.00
2013-7-29,91,81,77,-100,-100,-100,0,0,100,30.14,30.03,14,4,21,0.00
2013-7-30,91,82,77,-100,-100,-100,0,0,100,30.18,30.07,23,5,32,0.00
2013-7-31,90,82,78,-100,-100,-100,0,0,100,30.14,30.01,14,5,22,0.00
2013-8-1,87,82,76,-100,-100,-100,0,0,100,30.06,29.96,14,6,24,0.00
2013-8-2,88,81,76,-100,-100,-100,0,0,100,30.05,29.95,15,5,19,0.00
2013-8-3,88,85,80,-100,-100,-100,0,0,100,30.10,30.01,14,8,19,0.00
2013-8-4,87,85,82,-100,-100,-100,0,0,100,30.10,30.00,21,8,23,0.00
2013-8-5,88,85,83,-100,-100,-100,0,0,100,30.04,29.94,17,9,19,0.00
2013-8-6,87,82,79,-100,-100,-100,0,0,100,29.99,29.90,16,5,19,0.00
2013-8-7,88,81,76,-100,-100,-100,0,0,100,29.97,29.90,16,5,19,0.00
2013-8-8,90,82,76,-100,-100,-100,0,0,100,30.02,29.93,14,6,15,0.00
2013-8-9,88,80,75,-100,-100,-100,0,0,100,30.05,29.96,11,5,16,0.00
2013-8-10,91,84,76,-100,-100,-100,0,0,100,30.13,30.03,14,-15,19,0.00
2013-8-11,93,84,78,-100,-100,-100,0,0,100,30.15,30.05,14,-3,17,0.00
2013-8-31,84,83,81,-100,-100,-100,0,0,100,29.98,29.93,8,5,9,0.00
2013-9-1,85,69,78,-100,-100,-100,0,0,100,29.99,29.95,9,6,12,0.00
2013-9-2,87,83,78,-100,-100,-100,0,0,100,30.03,29.95,9,-120,10,0.00
2013-9-3,86,84,81,-100,-100,-100,0,0,100,29.99,29.95,7,6,11,0.00
2013-9-4,89,82,76,-100,-100,-100,0,0,100,30.09,29.97,6,4,11,0.00
2013-9-5,88,82,77,-100,-100,-100,0,0,100,30.09,30.01,10,5,11,0.00
2013-9-6,86,80,76,-100,-100,-100,0,0,100,30.06,29.99,10,6,20,0.00